createdAt,value
2023-02-02T00:00:11.521Z,4.89
2023-02-02T00:02:13.086Z,4.91
2023-02-02T00:04:17.850Z,4.78
2023-02-02T00:06:23.062Z,4.67
2023-02-02T00:08:24.661Z,4.55
2023-02-02T00:10:26.096Z,4.51
2023-02-02T00:12:28.093Z,4.62
2023-02-02T00:14:29.677Z,4.67
2023-02-02T00:16:31.174Z,4.77
2023-02-02T00:18:32.721Z,4.75
2023-02-02T00:20:36.933Z,4.75
2023-02-02T00:22:38.467Z,4.76
2023-02-02T00:24:39.988Z,4.82
2023-02-02T00:26:41.958Z,4.84
2023-02-02T00:28:43.463Z,4.56
2023-02-02T00:30:45.711Z,4.47
2023-02-02T00:32:48.596Z,4.48
2023-02-02T00:34:50.074Z,4.54
2023-02-02T00:36:51.585Z,4.60
2023-02-02T00:38:53.628Z,4.61
2023-02-02T00:40:55.079Z,4.69
2023-02-02T00:42:56.526Z,4.74
2023-02-02T00:45:16.316Z,4.75
2023-02-02T00:47:18.037Z,4.71
2023-02-02T00:49:19.546Z,4.73
2023-02-02T00:51:21.029Z,4.78
2023-02-02T00:53:22.480Z,4.81
2023-02-02T00:55:24.250Z,4.84
2023-02-02T00:57:25.903Z,4.88
2023-02-02T00:59:27.412Z,4.71
2023-02-02T01:01:29.106Z,4.71
2023-02-02T01:03:30.599Z,4.45
2023-02-02T01:05:32.191Z,4.42
2023-02-02T01:07:33.711Z,4.44
2023-02-02T01:09:35.194Z,4.46
2023-02-02T01:11:37.044Z,4.55
2023-02-02T01:13:38.665Z,4.59
2023-02-02T01:15:40.276Z,4.66
2023-02-02T01:17:41.696Z,4.60
2023-02-02T01:19:43.218Z,4.52
2023-02-02T01:21:44.706Z,4.56
2023-02-02T01:23:46.188Z,4.56
2023-02-02T01:25:52.946Z,4.56
2023-02-02T01:27:54.446Z,4.45
2023-02-02T01:29:55.935Z,4.44
2023-02-02T01:31:57.492Z,4.47
2023-02-02T01:33:59.007Z,4.46
2023-02-02T01:36:02.825Z,4.37
2023-02-02T01:38:04.284Z,4.39
2023-02-02T01:40:06.174Z,4.41
2023-02-02T01:42:14.951Z,4.43
2023-02-02T01:44:35.027Z,4.47
2023-02-02T01:46:36.976Z,4.45
2023-02-02T01:48:38.436Z,4.40
2023-02-02T01:50:39.926Z,4.39
2023-02-02T01:52:41.427Z,4.40
2023-02-02T01:54:44.675Z,4.23
2023-02-02T01:56:47.437Z,4.14
2023-02-02T01:58:48.958Z,4.18
2023-02-02T02:00:50.417Z,4.18
2023-02-02T02:02:52.374Z,4.12
2023-02-02T02:04:54.248Z,4.11
2023-02-02T02:06:55.798Z,4.07
2023-02-02T02:09:01.256Z,4.05
2023-02-02T02:11:02.813Z,4.01
2023-02-02T02:13:04.480Z,4.09
2023-02-02T02:15:25.278Z,4.09
2023-02-02T02:17:29.954Z,4.12
2023-02-02T02:20:05.250Z,4.15
2023-02-02T02:22:35.195Z,4.11
2023-02-02T02:24:55.511Z,3.99
2023-02-02T02:27:15.676Z,4.02
2023-02-02T02:29:35.993Z,3.96
2023-02-02T02:31:43.602Z,3.95
2023-02-02T02:33:50.976Z,3.98
2023-02-02T02:35:56.100Z,3.91
2023-02-02T02:37:57.537Z,3.96
2023-02-02T02:40:17.253Z,3.99
2023-02-02T02:42:23.003Z,4.02
2023-02-02T02:44:24.459Z,3.99
2023-02-02T02:46:25.939Z,3.99
2023-02-02T02:48:28.746Z,4.05
2023-02-02T02:50:30.206Z,4.02
2023-02-02T02:52:32.158Z,4.07
2023-02-02T02:54:34.484Z,4.05
2023-02-02T02:56:40.369Z,3.98
2023-02-02T02:58:41.817Z,3.97
2023-02-02T03:01:12.708Z,4.04
2023-02-02T03:03:16.577Z,3.99
2023-02-02T03:05:27.137Z,4.01
2023-02-02T03:07:49.055Z,4.03
2023-02-02T03:09:50.512Z,4.05
2023-02-02T03:11:51.967Z,4.09
2023-02-02T03:13:53.445Z,4.07
2023-02-02T03:15:55.128Z,3.99
2023-02-02T03:17:56.676Z,3.89
2023-02-02T03:19:58.099Z,3.55
2023-02-02T03:21:59.576Z,3.39
2023-02-02T03:24:01.230Z,3.25
2023-02-02T03:26:02.762Z,3.12
2023-02-02T03:28:04.714Z,3.16
2023-02-02T03:30:07.045Z,3.27
2023-02-02T03:32:08.558Z,3.36
2023-02-02T03:34:10.010Z,3.40
2023-02-02T03:36:11.504Z,3.43
2023-02-02T03:38:13.068Z,3.45
2023-02-02T03:40:14.598Z,3.48
2023-02-02T03:42:16.088Z,3.48
2023-02-02T03:44:17.629Z,3.43
2023-02-02T03:46:19.101Z,3.53
2023-02-02T03:48:20.566Z,3.63
2023-02-02T03:50:22.053Z,3.69
2023-02-02T03:52:23.705Z,3.63
2023-02-02T03:54:25.187Z,3.74
2023-02-02T03:56:26.631Z,3.80
2023-02-02T03:58:28.099Z,3.86
2023-02-02T04:00:29.623Z,3.64
2023-02-02T04:02:31.203Z,3.61
2023-02-02T04:04:32.872Z,3.59
2023-02-02T04:06:34.311Z,3.72
2023-02-02T04:08:36.158Z,3.67
2023-02-02T04:10:39.721Z,3.58
2023-02-02T04:12:41.167Z,3.60
2023-02-02T04:14:42.604Z,3.44
2023-02-02T04:16:44.050Z,3.36
2023-02-02T04:18:45.602Z,3.28
2023-02-02T04:20:47.082Z,3.17
2023-02-02T04:22:48.611Z,2.97
2023-02-02T04:24:50.133Z,2.66
2023-02-02T04:26:51.611Z,2.47
2023-02-02T04:28:53.539Z,2.61
2023-02-02T04:30:55.436Z,2.64
2023-02-02T04:32:56.945Z,2.85
2023-02-02T04:34:58.427Z,3.10
2023-02-02T04:36:59.903Z,3.27
2023-02-02T04:39:01.470Z,3.45
2023-02-02T04:41:06.819Z,3.55
2023-02-02T04:43:08.326Z,3.65
2023-02-02T04:45:10.141Z,3.77
2023-02-02T04:47:11.700Z,3.85
2023-02-02T04:49:13.126Z,3.89
2023-02-02T04:51:15.318Z,3.89
2023-02-02T04:53:16.823Z,3.91
2023-02-02T04:55:18.388Z,3.92
2023-02-02T04:57:19.922Z,3.87
2023-02-02T04:59:21.459Z,3.90
2023-02-02T05:01:23.028Z,3.90
2023-02-02T05:03:24.597Z,3.92
2023-02-02T05:05:26.286Z,3.92
2023-02-02T05:07:28.011Z,3.95
2023-02-02T05:09:29.511Z,3.97
2023-02-02T05:11:31.065Z,3.89
2023-02-02T05:13:32.584Z,3.89
2023-02-02T05:15:34.164Z,3.94
2023-02-02T05:17:35.623Z,3.90
2023-02-02T05:19:37.058Z,3.88
2023-02-02T05:21:38.655Z,3.92
2023-02-02T05:23:40.161Z,3.93
2023-02-02T05:25:41.944Z,3.96
2023-02-02T05:27:44.673Z,3.91
2023-02-02T05:29:46.940Z,3.89
2023-02-02T05:31:48.502Z,3.89
2023-02-02T05:33:50.011Z,3.85
2023-02-02T05:35:51.909Z,3.73
2023-02-02T05:37:53.404Z,3.66
2023-02-02T05:39:54.885Z,3.66
2023-02-02T05:41:56.312Z,3.72
2023-02-02T05:44:00.898Z,3.79
2023-02-02T05:46:02.557Z,3.83
2023-02-02T05:48:04.271Z,3.87
2023-02-02T05:50:06.461Z,3.89
2023-02-02T05:52:08.281Z,3.96
2023-02-02T05:54:09.752Z,4.02
2023-02-02T05:56:11.644Z,4.05
2023-02-02T05:58:13.120Z,4.08
2023-02-02T06:00:14.822Z,4.02
2023-02-02T06:02:16.349Z,4.05
2023-02-02T06:04:17.910Z,4.09
2023-02-02T06:06:19.362Z,3.87
2023-02-02T06:08:20.832Z,3.88
2023-02-02T06:10:22.340Z,3.89
2023-02-02T06:12:23.792Z,3.87
2023-02-02T06:14:25.326Z,4.00
2023-02-02T06:16:26.834Z,4.08
2023-02-02T06:18:28.336Z,4.09
2023-02-02T06:20:29.942Z,4.20
2023-02-02T06:22:32.411Z,4.29
2023-02-02T06:24:33.929Z,4.36
2023-02-02T06:26:35.489Z,4.42
2023-02-02T06:28:36.990Z,4.33
2023-02-02T06:30:38.643Z,4.37
2023-02-02T06:32:40.270Z,4.36
2023-02-02T06:34:41.752Z,4.40
2023-02-02T06:36:43.287Z,4.48
2023-02-02T06:38:48.728Z,4.46
2023-02-02T06:40:50.196Z,4.47
2023-02-02T06:42:57.949Z,4.48
2023-02-02T06:44:59.502Z,4.46
2023-02-02T06:47:01.001Z,4.45
2023-02-02T06:49:02.497Z,4.44
2023-02-02T06:51:05.609Z,4.42
2023-02-02T06:53:07.068Z,4.55
2023-02-02T06:55:08.760Z,4.54
2023-02-02T06:57:10.235Z,4.57
2023-02-02T06:59:11.682Z,4.56
2023-02-02T07:01:13.697Z,4.53
2023-02-02T07:03:15.596Z,4.55
2023-02-02T07:05:19.552Z,4.65
2023-02-02T07:07:21.097Z,4.69
2023-02-02T07:09:22.571Z,4.69
2023-02-02T07:11:24.024Z,4.74
2023-02-02T07:13:25.878Z,4.84
2023-02-02T07:15:27.420Z,4.96
2023-02-02T07:17:29.021Z,4.94
2023-02-02T07:19:49.253Z,4.94
2023-02-02T07:21:50.703Z,4.96
2023-02-02T07:23:52.214Z,4.95
2023-02-02T07:26:00.587Z,4.92
2023-02-02T07:28:02.109Z,4.90
2023-02-02T07:30:04.161Z,4.88
2023-02-02T07:32:05.695Z,4.90
2023-02-02T07:34:07.253Z,4.88
2023-02-02T07:36:08.833Z,4.99
2023-02-02T07:38:10.350Z,5.01
2023-02-02T07:40:11.998Z,5.18
2023-02-02T07:42:13.462Z,5.24
2023-02-02T07:44:15.668Z,5.27
2023-02-02T07:46:17.547Z,5.35
2023-02-02T07:48:19.100Z,5.37
2023-02-02T07:50:20.654Z,5.47
2023-02-02T07:52:22.119Z,5.53
2023-02-02T07:54:23.710Z,5.60
2023-02-02T07:56:26.698Z,5.71
2023-02-02T07:58:28.196Z,5.80
2023-02-02T08:00:29.776Z,5.82
2023-02-02T08:02:31.384Z,5.84
2023-02-02T08:04:34.381Z,6.02
2023-02-02T08:06:36.786Z,5.95
2023-02-02T08:08:38.339Z,6.18
2023-02-02T08:10:39.779Z,6.21
2023-02-02T08:12:41.249Z,6.35
2023-02-02T08:14:42.691Z,6.48
2023-02-02T08:16:44.154Z,6.53
2023-02-02T08:18:45.660Z,6.47
2023-02-02T08:20:47.146Z,6.51
2023-02-02T08:22:48.623Z,6.47
2023-02-02T08:24:50.184Z,6.38
2023-02-02T08:26:51.651Z,6.22
2023-02-02T08:28:54.373Z,6.26
2023-02-02T08:30:55.833Z,6.25
2023-02-02T08:32:57.413Z,6.32
2023-02-02T08:34:58.950Z,6.49
2023-02-02T08:37:00.358Z,6.53
2023-02-02T08:39:03.267Z,6.69
2023-02-02T08:41:05.961Z,6.80
2023-02-02T08:43:07.433Z,6.67
2023-02-02T08:46:13.689Z,6.70
2023-02-02T08:47:33.858Z,6.64
2023-02-02T08:49:35.905Z,6.63
2023-02-02T08:51:37.498Z,6.61
2023-02-02T08:53:39.005Z,6.68
2023-02-02T08:55:40.510Z,6.51
2023-02-02T08:57:44.393Z,6.44
2023-02-02T08:59:46.088Z,6.53
2023-02-02T09:01:47.597Z,6.79
2023-02-02T09:03:49.272Z,6.87
2023-02-02T09:05:50.701Z,6.94
2023-02-02T09:07:52.170Z,7.05
2023-02-02T09:09:55.807Z,7.26
2023-02-02T09:11:57.269Z,7.29
2023-02-02T09:13:59.275Z,7.43
2023-02-02T09:16:01.512Z,7.38
2023-02-02T09:18:03.026Z,7.49
2023-02-02T09:20:04.871Z,7.69
2023-02-02T09:22:06.450Z,7.92
2023-02-02T09:24:08.630Z,8.07
2023-02-02T09:26:10.529Z,8.33
2023-02-02T09:28:12.001Z,8.44
2023-02-02T09:30:13.681Z,8.60
2023-02-02T09:32:15.204Z,8.68
2023-02-02T09:34:16.694Z,8.81
2023-02-02T09:36:20.309Z,8.56
2023-02-02T09:38:21.940Z,8.57
2023-02-02T09:40:27.839Z,8.48
2023-02-02T09:42:33.000Z,8.23
2023-02-02T09:44:37.511Z,8.43
2023-02-02T09:46:39.089Z,8.56
2023-02-02T09:48:43.490Z,8.70
2023-02-02T09:50:50.036Z,8.76
2023-02-02T09:53:17.502Z,8.91
2023-02-02T09:55:26.570Z,9.04
2023-02-02T09:57:38.361Z,9.07
2023-02-02T09:59:40.228Z,9.32
2023-02-02T10:01:45.231Z,9.50
2023-02-02T10:03:59.470Z,9.49
2023-02-02T10:06:16.054Z,9.69
2023-02-02T10:08:33.848Z,8.83
2023-02-02T10:10:39.107Z,8.69
2023-02-02T10:12:48.930Z,8.65
2023-02-02T10:15:01.898Z,8.36
2023-02-02T10:17:09.267Z,8.64
2023-02-02T10:19:11.590Z,8.85
2023-02-02T10:21:14.198Z,8.99
2023-02-02T10:23:15.716Z,9.14
2023-02-02T10:25:17.713Z,9.49
2023-02-02T10:27:22.982Z,9.56
2023-02-02T10:29:24.483Z,9.56
2023-02-02T10:31:29.614Z,9.46
2023-02-02T10:33:40.438Z,9.39
2023-02-02T10:35:41.882Z,9.32
2023-02-02T10:38:03.709Z,9.35
2023-02-02T10:40:11.868Z,9.24
2023-02-02T10:42:14.083Z,9.24
2023-02-02T10:44:22.536Z,9.24
2023-02-02T10:46:24.376Z,9.11
2023-02-02T10:48:32.826Z,8.80
2023-02-02T10:50:34.307Z,8.79
2023-02-02T10:52:37.081Z,9.04
2023-02-02T10:54:57.274Z,9.22
2023-02-02T10:56:59.814Z,9.05
2023-02-02T10:59:01.357Z,9.19
2023-02-02T11:01:05.148Z,9.20
2023-02-02T11:03:08.278Z,9.13
2023-02-02T11:05:32.060Z,9.35
2023-02-02T11:07:33.566Z,9.52
2023-02-02T11:09:40.052Z,9.43
2023-02-02T11:11:45.557Z,9.33
2023-02-02T11:13:55.330Z,9.34
2023-02-02T11:16:41.317Z,9.47
2023-02-02T11:18:44.439Z,9.33
2023-02-02T11:20:46.704Z,9.52
2023-02-02T11:22:48.300Z,9.50
2023-02-02T11:24:50.033Z,9.41
2023-02-02T11:27:01.373Z,9.08
2023-02-02T11:29:02.870Z,9.30
2023-02-02T11:31:04.494Z,9.35
2023-02-02T11:33:19.885Z,9.37
2023-02-02T11:35:25.549Z,9.36
2023-02-02T11:37:27.119Z,9.38
2023-02-02T11:39:28.724Z,9.19
2023-02-02T11:41:31.078Z,9.29
2023-02-02T11:43:36.441Z,9.42
2023-02-02T11:45:40.701Z,9.60
2023-02-02T11:47:42.159Z,9.55
2023-02-02T11:49:44.034Z,9.65
2023-02-02T11:52:06.740Z,9.77
2023-02-02T11:54:18.520Z,9.72
2023-02-02T11:56:20.980Z,9.53
2023-02-02T11:58:27.765Z,9.18
2023-02-02T12:00:29.881Z,9.19
2023-02-02T12:02:31.999Z,9.15
2023-02-02T12:04:33.529Z,9.26
2023-02-02T12:06:36.060Z,9.51
2023-02-02T12:08:37.746Z,9.42
2023-02-02T12:10:42.763Z,9.35
2023-02-02T12:12:50.412Z,9.28
2023-02-02T12:14:57.512Z,9.35
2023-02-02T12:16:58.934Z,9.25
2023-02-02T12:19:00.369Z,9.09
2023-02-02T12:21:05.839Z,8.91
2023-02-02T12:23:07.323Z,8.81
2023-02-02T12:25:09.421Z,8.72
2023-02-02T12:27:23.182Z,8.88
2023-02-02T12:29:34.847Z,8.87
2023-02-02T12:31:55.943Z,8.78
2023-02-02T12:34:06.639Z,8.65
2023-02-02T12:36:08.089Z,8.40
2023-02-02T12:38:15.596Z,8.33
2023-02-02T12:40:30.166Z,8.27
2023-02-02T12:42:34.750Z,8.22
2023-02-02T12:44:39.261Z,8.21
2023-02-02T12:46:43.455Z,8.17
2023-02-02T12:48:49.289Z,8.18
2023-02-02T12:50:53.537Z,8.23
2023-02-02T12:53:13.797Z,7.93
2023-02-02T12:55:17.517Z,7.72
2023-02-02T12:57:22.135Z,7.88
2023-02-02T12:59:26.624Z,7.74
2023-02-02T13:01:39.003Z,7.88
2023-02-02T13:03:52.694Z,7.98
2023-02-02T13:06:12.769Z,7.98
2023-02-02T13:08:18.091Z,8.05
2023-02-02T13:10:19.533Z,8.12
2023-02-02T13:12:22.078Z,8.13
2023-02-02T13:14:25.193Z,8.31
2023-02-02T13:16:26.691Z,8.28
2023-02-02T13:18:32.126Z,8.09
2023-02-02T13:20:36.442Z,8.15
2023-02-02T13:22:39.533Z,8.19
2023-02-02T13:24:41.412Z,8.21
2023-02-02T13:26:43.232Z,8.29
2023-02-02T13:28:50.357Z,8.35
2023-02-02T13:30:51.957Z,8.26
2023-02-02T13:32:53.711Z,8.43
2023-02-02T13:34:55.202Z,8.36
2023-02-02T13:36:57.471Z,8.21
2023-02-02T13:39:00.363Z,8.00
2023-02-02T13:41:03.924Z,8.05
2023-02-02T13:43:11.731Z,8.11
2023-02-02T13:45:31.891Z,8.03
2023-02-02T13:47:37.992Z,7.97
2023-02-02T13:49:43.265Z,7.92
2023-02-02T13:51:44.684Z,7.84
2023-02-02T13:53:49.190Z,7.97
2023-02-02T13:56:13.720Z,8.16
2023-02-02T13:58:34.156Z,8.21
2023-02-02T14:00:39.066Z,8.24
2023-02-02T14:02:44.528Z,8.35
2023-02-02T14:04:46.030Z,8.39
2023-02-02T14:07:06.027Z,8.18
2023-02-02T14:09:08.075Z,8.03
2023-02-02T14:11:14.730Z,8.14
2023-02-02T14:13:35.760Z,8.07
2023-02-02T14:15:40.787Z,7.86
2023-02-02T14:17:42.329Z,7.72
2023-02-02T14:19:43.980Z,7.59
2023-02-02T14:21:48.458Z,7.48
2023-02-02T14:23:51.361Z,7.42
2023-02-02T14:26:06.475Z,7.21
2023-02-02T14:28:12.398Z,7.19
2023-02-02T14:30:17.588Z,7.06
2023-02-02T14:32:25.510Z,7.02
2023-02-02T14:34:30.708Z,6.80
2023-02-02T14:36:32.175Z,6.78
2023-02-02T14:38:33.630Z,6.54
2023-02-02T14:40:50.218Z,6.51
2023-02-02T14:43:13.389Z,6.39
2023-02-02T14:45:16.638Z,6.30
2023-02-02T14:47:37.077Z,6.02
2023-02-02T14:49:38.631Z,5.46
2023-02-02T14:51:47.441Z,5.02
2023-02-02T14:54:02.148Z,5.02
2023-02-02T14:56:09.099Z,4.74
2023-02-02T14:58:18.936Z,4.52
2023-02-02T15:00:22.293Z,3.51
2023-02-02T15:02:25.341Z,2.87
2023-02-02T15:04:27.197Z,2.69
2023-02-02T15:06:28.995Z,2.27
2023-02-02T15:08:30.580Z,2.25
2023-02-02T15:10:53.581Z,2.31
2023-02-02T15:13:03.070Z,2.56
2023-02-02T15:15:12.917Z,2.44
2023-02-02T15:17:21.086Z,2.53
2023-02-02T15:19:28.461Z,2.67
2023-02-02T15:21:29.909Z,2.73
2023-02-02T15:23:34.854Z,2.82
2023-02-02T15:25:55.213Z,2.87
2023-02-02T15:28:15.515Z,2.98
2023-02-02T15:30:17.891Z,3.06
2023-02-02T15:32:20.589Z,3.19
2023-02-02T15:34:37.747Z,3.09
2023-02-02T15:36:39.712Z,3.05
2023-02-02T15:38:41.243Z,2.92
2023-02-02T15:40:42.762Z,2.57
2023-02-02T15:42:54.156Z,2.65
2023-02-02T15:44:55.932Z,2.76
2023-02-02T15:46:58.370Z,2.73
2023-02-02T15:49:33.229Z,2.79
2023-02-02T15:51:35.665Z,2.67
2023-02-02T15:53:43.290Z,2.71
2023-02-02T15:55:44.780Z,2.80
2023-02-02T15:57:46.333Z,2.83
2023-02-02T15:59:49.449Z,2.94
2023-02-02T16:01:53.453Z,2.97
2023-02-02T16:03:56.951Z,2.98
2023-02-02T16:05:58.539Z,3.06
2023-02-02T16:08:05.605Z,3.08
2023-02-02T16:10:07.820Z,3.11
2023-02-02T16:12:19.366Z,3.16
2023-02-02T16:14:21.174Z,3.22
2023-02-02T16:16:27.873Z,3.15
2023-02-02T16:18:30.324Z,3.08
2023-02-02T16:20:33.272Z,3.02
2023-02-02T16:22:35.671Z,3.12
2023-02-02T16:24:38.459Z,3.09
2023-02-02T16:26:41.130Z,3.01
2023-02-02T16:28:44.063Z,2.99
2023-02-02T16:30:46.637Z,2.98
2023-02-02T16:32:48.104Z,3.09
2023-02-02T16:34:50.106Z,3.17
2023-02-02T16:37:04.644Z,3.13
2023-02-02T16:39:14.627Z,3.22
2023-02-02T16:41:32.837Z,3.25
2023-02-02T16:43:34.866Z,3.33
2023-02-02T16:45:57.064Z,3.34
2023-02-02T16:48:00.638Z,3.31
2023-02-02T16:50:07.846Z,3.33
2023-02-02T16:52:13.731Z,3.32
2023-02-02T16:54:19.354Z,3.35
2023-02-02T16:56:23.871Z,3.40
2023-02-02T16:58:25.383Z,3.46
2023-02-02T17:00:28.101Z,3.40
2023-02-02T17:02:32.343Z,3.37
2023-02-02T17:04:34.290Z,3.37
2023-02-02T17:06:51.484Z,3.30
2023-02-02T17:08:54.084Z,3.35
2023-02-02T17:11:14.624Z,3.38
2023-02-02T17:13:31.174Z,3.35
2023-02-02T17:15:36.579Z,3.11
2023-02-02T17:17:38.146Z,3.05
2023-02-02T17:19:39.740Z,2.97
2023-02-02T17:21:41.298Z,2.99
2023-02-02T17:23:42.866Z,2.93
2023-02-02T17:25:44.534Z,2.97
2023-02-02T17:27:46.032Z,3.05
2023-02-02T17:29:47.533Z,3.03
2023-02-02T17:31:49.156Z,3.07
2023-02-02T17:33:50.782Z,3.11
2023-02-02T17:35:55.657Z,3.15
2023-02-02T17:37:57.844Z,3.19
2023-02-02T17:39:59.359Z,3.24
2023-02-02T17:42:00.904Z,3.19
2023-02-02T17:44:04.810Z,3.22
2023-02-02T17:46:06.312Z,3.12
2023-02-02T17:48:09.425Z,3.12
2023-02-02T17:50:11.080Z,2.98
2023-02-02T17:52:12.883Z,3.02
2023-02-02T17:54:14.902Z,2.92
2023-02-02T17:56:16.367Z,2.92
2023-02-02T17:58:18.139Z,2.98
2023-02-02T18:00:21.208Z,3.00
2023-02-02T18:02:22.672Z,2.99
2023-02-02T18:04:25.008Z,3.00
2023-02-02T18:06:26.627Z,3.03
2023-02-02T18:08:28.494Z,3.07
2023-02-02T18:10:30.362Z,3.09
2023-02-02T18:12:35.120Z,3.08
2023-02-02T18:14:37.774Z,3.13
2023-02-02T18:16:39.257Z,3.16
2023-02-02T18:18:40.776Z,3.19
2023-02-02T18:20:45.966Z,3.26
2023-02-02T18:22:48.714Z,3.25
2023-02-02T18:24:50.315Z,3.21
2023-02-02T18:26:51.865Z,3.22
2023-02-02T18:28:53.525Z,3.19
2023-02-02T18:30:55.730Z,3.26
2023-02-02T18:32:57.306Z,3.22
2023-02-02T18:34:58.869Z,3.26
2023-02-02T18:37:00.510Z,3.35
2023-02-02T18:39:01.942Z,3.27
2023-02-02T18:41:04.072Z,3.31
2023-02-02T18:43:05.680Z,3.25
2023-02-02T18:45:07.429Z,3.30
2023-02-02T18:47:08.899Z,3.34
2023-02-02T18:49:10.893Z,3.18
2023-02-02T18:51:16.081Z,3.20
2023-02-02T18:53:18.081Z,3.23
2023-02-02T18:55:19.617Z,3.33
2023-02-02T18:57:22.063Z,3.37
2023-02-02T18:59:23.513Z,3.34
2023-02-02T19:01:26.193Z,3.25
2023-02-02T19:03:27.738Z,3.25
2023-02-02T19:05:47.698Z,3.31
2023-02-02T19:07:54.972Z,3.38
2023-02-02T19:09:56.404Z,3.37
2023-02-02T19:11:57.835Z,3.28
2023-02-02T19:13:59.318Z,3.20
2023-02-02T19:16:01.054Z,3.14
2023-02-02T19:18:02.493Z,3.11
2023-02-02T19:20:09.404Z,3.05
2023-02-02T19:22:17.845Z,3.04
2023-02-02T19:24:19.316Z,3.05
2023-02-02T19:26:22.428Z,3.05
2023-02-02T19:28:25.422Z,3.07
2023-02-02T19:30:27.368Z,3.11
2023-02-02T19:32:31.433Z,3.18
2023-02-02T19:34:33.057Z,3.20
2023-02-02T19:36:34.497Z,3.13
2023-02-02T19:38:36.174Z,3.17
2023-02-02T19:40:37.639Z,3.20
2023-02-02T19:42:40.803Z,3.23
2023-02-02T19:44:42.414Z,3.24
2023-02-02T19:46:44.736Z,3.20
2023-02-02T19:48:46.309Z,3.17
2023-02-02T19:50:47.837Z,3.08
2023-02-02T19:52:49.729Z,3.05
2023-02-02T19:54:51.227Z,3.07
2023-02-02T19:56:56.550Z,3.08
2023-02-02T19:58:58.821Z,3.14
2023-02-02T20:01:00.324Z,3.25
2023-02-02T20:03:11.555Z,3.28
2023-02-02T20:05:20.591Z,3.30
2023-02-02T20:07:22.104Z,3.27
2023-02-02T20:09:24.336Z,3.35
2023-02-02T20:11:42.300Z,3.31
2023-02-02T20:13:44.334Z,3.28
2023-02-02T20:15:45.983Z,3.36
2023-02-02T20:17:47.476Z,3.20
2023-02-02T20:19:49.244Z,3.24
2023-02-02T20:21:51.552Z,3.27
2023-02-02T20:23:53.004Z,3.14
2023-02-02T20:25:54.501Z,3.18
2023-02-02T20:27:59.015Z,3.22
2023-02-02T20:30:04.684Z,3.18
2023-02-02T20:32:07.735Z,3.11
2023-02-02T20:34:21.819Z,3.04
2023-02-02T20:36:23.292Z,3.08
2023-02-02T20:38:26.037Z,3.11
2023-02-02T20:40:29.162Z,3.10
2023-02-02T20:42:30.704Z,2.83
2023-02-02T20:44:33.015Z,2.62
2023-02-02T20:46:34.519Z,2.54
2023-02-02T20:48:35.959Z,2.41
2023-02-02T20:50:37.402Z,2.19
2023-02-02T20:52:39.073Z,2.18
2023-02-02T20:54:40.688Z,2.11
2023-02-02T20:56:42.238Z,2.12
2023-02-02T20:58:43.792Z,2.12
2023-02-02T21:00:45.265Z,2.06
2023-02-02T21:02:48.577Z,2.08
2023-02-02T21:04:50.487Z,2.10
2023-02-02T21:06:52.094Z,1.90
2023-02-02T21:08:53.628Z,1.89
2023-02-02T21:10:55.104Z,2.05
2023-02-02T21:12:56.813Z,2.23
2023-02-02T21:14:58.269Z,2.20
2023-02-02T21:17:14.072Z,2.26
2023-02-02T21:19:16.589Z,2.27
2023-02-02T21:21:19.001Z,2.19
2023-02-02T21:23:21.796Z,2.31
2023-02-02T21:25:23.357Z,2.31
2023-02-02T21:27:24.864Z,2.21
2023-02-02T21:29:26.432Z,2.19
2023-02-02T21:31:28.034Z,2.32
2023-02-02T21:33:29.597Z,2.49
2023-02-02T21:35:31.184Z,2.60
2023-02-02T21:37:34.554Z,2.68
2023-02-02T21:39:36.451Z,2.70
2023-02-02T21:41:38.067Z,2.78
2023-02-02T21:43:39.654Z,2.83
2023-02-02T21:45:41.415Z,2.91
2023-02-02T21:47:54.165Z,3.00
2023-02-02T21:49:56.587Z,3.08
2023-02-02T21:51:59.318Z,3.07
2023-02-02T21:54:24.041Z,3.10
2023-02-02T21:56:29.287Z,2.92
2023-02-02T21:58:34.351Z,2.59
2023-02-02T22:00:35.936Z,2.31
2023-02-02T22:02:38.757Z,2.46
2023-02-02T22:04:40.372Z,2.50
2023-02-02T22:06:43.913Z,2.57
2023-02-02T22:08:45.508Z,2.62
2023-02-02T22:10:47.359Z,2.60
2023-02-02T22:12:48.806Z,2.65
2023-02-02T22:14:51.471Z,2.75
2023-02-02T22:16:53.887Z,2.87
2023-02-02T22:18:55.434Z,2.94
2023-02-02T22:20:57.033Z,3.02
2023-02-02T22:22:58.586Z,3.13
2023-02-02T22:25:04.777Z,3.20
2023-02-02T22:27:33.169Z,3.22
2023-02-02T22:29:34.750Z,3.13
2023-02-02T22:31:36.398Z,2.99
2023-02-02T22:33:38.082Z,2.87
2023-02-02T22:35:39.898Z,2.78
2023-02-02T22:37:41.460Z,2.83
2023-02-02T22:39:42.965Z,2.70
2023-02-02T22:41:45.154Z,2.70
2023-02-02T22:43:46.578Z,2.63
2023-02-02T22:45:48.359Z,2.55
2023-02-02T22:47:49.815Z,2.41
2023-02-02T22:49:51.288Z,2.44
2023-02-02T22:51:54.209Z,2.32
2023-02-02T22:53:55.855Z,2.42
2023-02-02T22:55:57.387Z,2.54
2023-02-02T22:57:58.865Z,2.39
2023-02-02T23:00:00.494Z,2.23
2023-02-02T23:02:01.980Z,2.33
2023-02-02T23:04:03.477Z,2.46
2023-02-02T23:06:04.993Z,2.34
2023-02-02T23:08:06.501Z,2.33
2023-02-02T23:10:08.191Z,2.29
2023-02-02T23:12:09.873Z,2.21
2023-02-02T23:14:11.323Z,2.14
2023-02-02T23:16:13.086Z,2.10
2023-02-02T23:18:14.599Z,2.20
2023-02-02T23:20:16.317Z,2.40
2023-02-02T23:22:17.847Z,2.56
2023-02-02T23:24:19.278Z,2.65
2023-02-02T23:26:20.946Z,2.80
2023-02-02T23:28:22.453Z,2.85
2023-02-02T23:30:24.618Z,2.89
2023-02-02T23:32:26.410Z,2.93
2023-02-02T23:34:27.866Z,2.89
2023-02-02T23:36:29.369Z,2.90
2023-02-02T23:38:30.822Z,2.92
2023-02-02T23:40:32.277Z,2.94
2023-02-02T23:42:34.088Z,3.00
2023-02-02T23:44:35.616Z,3.06
2023-02-02T23:46:37.574Z,2.91
2023-02-02T23:48:39.109Z,2.93
2023-02-02T23:50:40.742Z,2.84
2023-02-02T23:52:42.469Z,2.89
2023-02-02T23:54:43.922Z,2.81
2023-02-02T23:56:45.434Z,2.78
2023-02-02T23:58:46.941Z,2.77
